• Join FlightAware (Why Join?)
  • Login
  • US Flag 
05:03AM EDT


 

Airport Tracker/Info


-or-


 

Live Flight TrackerFlight Track Log ✈ CTL18 ✈ 29-Apr-2013 ✈ KPTK - KMBS

Flight Track Log - Related Links

Times and Time Zones

All times are in EDT time to prevent confusion due to time zone crossing. See the CTL18 flight status page for this flight to view local times or setup timezone preferences in your user account.

Time Position Orientation Groundspeed Altitude Reporting Facility
EDT Latitude Longitude Course Direction KTS MPH feet Rate Location/Type
07:09PM 42.6622 -83.4464 26° Northeast 116 133 1,400  Level Cleveland Center
07:11PM 42.7146 -83.4122 26° Northeast  Level FlightAware Approximate
07:18PM 42.9470 -83.4183 321° Northwest  Level FlightAware Approximate
07:19PM 42.9744 -83.4484 321° Northwest  Level FlightAware Approximate
07:20PM 43.0018 -83.4786 321° Northwest  Level FlightAware Approximate
07:21PM 43.0291 -83.5088 321° Northwest  Level FlightAware Approximate
07:22PM 43.0565 -83.5390 321° Northwest  Level FlightAware Approximate
07:23PM 43.0839 -83.5693 321° Northwest  Level FlightAware Approximate
07:24PM 43.1112 -83.5996 321° Northwest  Level FlightAware Approximate
07:25PM 43.1386 -83.6299 321° Northwest  Level FlightAware Approximate
07:26PM 43.1659 -83.6603 321° Northwest  Level FlightAware Approximate
07:27PM 43.1933 -83.6906 321° Northwest  Level FlightAware Approximate
07:28PM 43.2204 -83.7213 318° Northwest  Level FlightAware Approximate
07:29PM 43.2467 -83.7533 318° Northwest  Level FlightAware Approximate
07:30PM 43.2730 -83.7854 318° Northwest  Level FlightAware Approximate
07:31PM 43.2993 -83.8175 318° Northwest  Level FlightAware Approximate
07:32PM 43.3256 -83.8497 318° Northwest  Level FlightAware Approximate
07:33PM 43.3519 -83.8819 318° Northwest  Level FlightAware Approximate
07:34PM 43.3791 -83.9124 324° Northwest  Level FlightAware Approximate
07:35PM 43.4076 -83.9408 324° Northwest  Level FlightAware Approximate
07:36PM 43.4361 -83.9693 324° Northwest  Level FlightAware Approximate
07:37PM 43.4645 -83.9978 324° Northwest  Level FlightAware Approximate
07:38PM 43.4930 -84.0263 324° Northwest  Level FlightAware Approximate
07:39PM 43.5150 -84.0634 305° West  Level FlightAware Approximate